Terminal Aerodrome Forecast
Issued by NWS

Home | Current Version | Previous Version | Text Only | Print | Product List | Glossary On
Versions: 1 2 3 4 5 6 7 8 9 10 11 12 13 14 15 16 17 18
878
FTUS43 KEAX 141720
TAFSTJ
TAF
KSTJ 141720Z 1418/1518 VRB06KT 5SM -RA BR VCTS BKN040CB
     FM142300 21012G20KT P6SM -TSRA BKN040CB
      TEMPO 1423/1501 3SM TSRA BKN020CB
     FM150200 32018G26KT P6SM BKN020
     FM151200 31012KT P6SM SCT025=

USA.gov is the U.S. government's official web portal to all federal, state and local government web resources and services.